sensor_id;sensor_type;location;lat;lon;timestamp;pressure;altitude;pressure_sealevel;temperature;humidity
36222;BME280;22266;52.340;4.962;2023-03-05T00:00:17;102258.59;;;5.70;70.41
36222;BME280;22266;52.340;4.962;2023-03-05T00:02:43;102259.44;;;5.70;69.91
36222;BME280;22266;52.340;4.962;2023-03-05T00:05:10;102252.28;;;5.71;70.19
36222;BME280;22266;52.340;4.962;2023-03-05T00:07:36;102250.59;;;5.70;69.59
36222;BME280;22266;52.340;4.962;2023-03-05T00:10:04;102245.38;;;5.68;69.66
36222;BME280;22266;52.340;4.962;2023-03-05T00:12:30;102243.69;;;5.67;69.65
36222;BME280;22266;52.340;4.962;2023-03-05T00:14:57;102244.66;;;5.66;69.76
36222;BME280;22266;52.340;4.962;2023-03-05T00:17:23;102237.75;;;5.64;69.76
36222;BME280;22266;52.340;4.962;2023-03-05T00:19:50;102240.44;;;5.64;69.42
36222;BME280;22266;52.340;4.962;2023-03-05T00:22:16;102240.53;;;5.62;69.87
36222;BME280;22266;52.340;4.962;2023-03-05T00:24:43;102238.00;;;5.61;70.11
36222;BME280;22266;52.340;4.962;2023-03-05T00:27:09;102235.59;;;5.58;69.67
36222;BME280;22266;52.340;4.962;2023-03-05T00:29:36;102231.59;;;5.52;69.94
36222;BME280;22266;52.340;4.962;2023-03-05T00:32:02;102241.44;;;5.52;70.17
36222;BME280;22266;52.340;4.962;2023-03-05T00:34:29;102230.03;;;5.50;69.82
36222;BME280;22266;52.340;4.962;2023-03-05T00:36:56;102237.19;;;5.49;69.89
36222;BME280;22266;52.340;4.962;2023-03-05T00:39:23;102232.84;;;5.48;69.83
36222;BME280;22266;52.340;4.962;2023-03-05T00:41:50;102226.66;;;5.48;70.06
36222;BME280;22266;52.340;4.962;2023-03-05T00:44:16;102231.16;;;5.47;70.13
36222;BME280;22266;52.340;4.962;2023-03-05T00:46:43;102230.41;;;5.45;69.92
36222;BME280;22266;52.340;4.962;2023-03-05T00:49:10;102223.50;;;5.42;70.16
36222;BME280;22266;52.340;4.962;2023-03-05T00:51:36;102231.78;;;5.39;70.24
36222;BME280;22266;52.340;4.962;2023-03-05T00:54:04;102223.16;;;5.36;69.68
36222;BME280;22266;52.340;4.962;2023-03-05T00:56:31;102222.44;;;5.34;70.17
36222;BME280;22266;52.340;4.962;2023-03-05T00:58:57;102210.31;;;5.30;70.38
36222;BME280;22266;52.340;4.962;2023-03-05T01:01:24;102210.59;;;5.27;70.03
36222;BME280;22266;52.340;4.962;2023-03-05T01:03:51;102204.66;;;5.23;70.12
36222;BME280;22266;52.340;4.962;2023-03-05T01:06:18;102206.47;;;5.23;70.36
36222;BME280;22266;52.340;4.962;2023-03-05T01:08:45;102198.56;;;5.21;70.20
36222;BME280;22266;52.340;4.962;2023-03-05T01:11:12;102208.53;;;5.19;70.21
36222;BME280;22266;52.340;4.962;2023-03-05T01:13:39;102201.38;;;5.19;70.12
36222;BME280;22266;52.340;4.962;2023-03-05T01:16:06;102191.66;;;5.18;70.55
36222;BME280;22266;52.340;4.962;2023-03-05T01:18:33;102187.28;;;5.17;70.58
36222;BME280;22266;52.340;4.962;2023-03-05T01:20:59;102198.81;;;5.18;70.34
36222;BME280;22266;52.340;4.962;2023-03-05T01:23:26;102182.94;;;5.16;70.26
36222;BME280;22266;52.340;4.962;2023-03-05T01:25:58;102183.06;;;5.15;70.46
36222;BME280;22266;52.340;4.962;2023-03-05T01:28:26;102189.13;;;5.17;70.84
36222;BME280;22266;52.340;4.962;2023-03-05T01:30:53;102194.47;;;5.17;70.52
36222;BME280;22266;52.340;4.962;2023-03-05T01:33:19;102192.53;;;5.19;70.77
36222;BME280;22266;52.340;4.962;2023-03-05T01:35:47;102189.13;;;5.17;70.41
36222;BME280;22266;52.340;4.962;2023-03-05T01:38:14;102189.03;;;5.07;70.57
36222;BME280;22266;52.340;4.962;2023-03-05T01:40:41;102177.38;;;5.08;71.09
36222;BME280;22266;52.340;4.962;2023-03-05T01:48:47;102167.06;;;5.15;72.17
36222;BME280;22266;52.340;4.962;2023-03-05T01:51:17;102154.41;;;5.17;72.09
36222;BME280;22266;52.340;4.962;2023-03-05T01:53:45;102150.66;;;5.19;72.27
36222;BME280;22266;52.340;4.962;2023-03-05T01:56:12;102144.19;;;5.22;72.92
36222;BME280;22266;52.340;4.962;2023-03-05T01:58:39;102140.56;;;5.23;72.45
36222;BME280;22266;52.340;4.962;2023-03-05T02:01:05;102141.53;;;5.22;72.94
36222;BME280;22266;52.340;4.962;2023-03-05T02:03:33;102137.06;;;5.23;72.96
36222;BME280;22266;52.340;4.962;2023-03-05T02:05:59;102130.75;;;5.24;73.29
36222;BME280;22266;52.340;4.962;2023-03-05T02:08:26;102130.59;;;5.25;73.29
36222;BME280;22266;52.340;4.962;2023-03-05T02:10:54;102118.94;;;5.26;73.52
36222;BME280;22266;52.340;4.962;2023-03-05T02:13:28;102122.34;;;5.28;73.31
36222;BME280;22266;52.340;4.962;2023-03-05T02:15:58;102116.16;;;5.28;73.09
36222;BME280;22266;52.340;4.962;2023-03-05T02:18:25;102120.66;;;5.27;73.07
36222;BME280;22266;52.340;4.962;2023-03-05T02:23:28;102098.81;;;5.22;73.02
36222;BME280;22266;52.340;4.962;2023-03-05T02:25:55;102092.03;;;5.18;73.63
36222;BME280;22266;52.340;4.962;2023-03-05T02:28:25;102095.84;;;5.15;73.42
36222;BME280;22266;52.340;4.962;2023-03-05T02:30:53;102089.91;;;5.12;73.46
36222;BME280;22266;52.340;4.962;2023-03-05T02:33:20;102091.13;;;5.08;73.82
36222;BME280;22266;52.340;4.962;2023-03-05T02:35:47;102094.78;;;5.07;73.83
36222;BME280;22266;52.340;4.962;2023-03-05T02:38:16;102092.34;;;5.04;74.03
36222;BME280;22266;52.340;4.962;2023-03-05T02:40:43;102087.13;;;5.02;73.97
36222;BME280;22266;52.340;4.962;2023-03-05T02:43:11;102092.34;;;5.04;74.54
36222;BME280;22266;52.340;4.962;2023-03-05T02:45:38;102084.34;;;5.04;74.28
36222;BME280;22266;52.340;4.962;2023-03-05T02:48:05;102082.53;;;5.04;74.13
36222;BME280;22266;52.340;4.962;2023-03-05T02:50:33;102075.22;;;5.06;74.39
36222;BME280;22266;52.340;4.962;2023-03-05T02:53:00;102060.94;;;5.07;75.10
36222;BME280;22266;52.340;4.962;2023-03-05T02:55:27;102070.47;;;5.10;74.92
36222;BME280;22266;52.340;4.962;2023-03-05T02:57:53;102060.53;;;5.12;74.98
36222;BME280;22266;52.340;4.962;2023-03-05T03:00:21;102061.25;;;5.14;74.89
36222;BME280;22266;52.340;4.962;2023-03-05T03:02:48;102049.72;;;5.13;75.41
36222;BME280;22266;52.340;4.962;2023-03-05T03:05:15;102049.72;;;5.13;75.21
36222;BME280;22266;52.340;4.962;2023-03-05T03:07:41;102045.22;;;5.14;75.54
36222;BME280;22266;52.340;4.962;2023-03-05T03:10:08;102040.03;;;5.12;75.47
36222;BME280;22266;52.340;4.962;2023-03-05T03:12:37;102047.91;;;5.14;75.57
36222;BME280;22266;52.340;4.962;2023-03-05T03:15:05;102039.88;;;5.14;75.27
36222;BME280;22266;52.340;4.962;2023-03-05T03:17:34;102044.13;;;5.16;75.50
36222;BME280;22266;52.340;4.962;2023-03-05T03:20:03;102034.31;;;5.17;75.53
36222;BME280;22266;52.340;4.962;2023-03-05T03:22:30;102029.81;;;5.17;75.90
36222;BME280;22266;52.340;4.962;2023-03-05T03:24:56;102032.47;;;5.17;75.90
36222;BME280;22266;52.340;4.962;2023-03-05T03:27:23;102029.94;;;5.16;75.70
36222;BME280;22266;52.340;4.962;2023-03-05T03:29:49;102024.72;;;5.14;75.75
36222;BME280;22266;52.340;4.962;2023-03-05T03:32:16;102017.09;;;5.10;75.60
36222;BME280;22266;52.340;4.962;2023-03-05T03:34:42;102019.66;;;5.11;75.56
36222;BME280;22266;52.340;4.962;2023-03-05T03:37:09;102017.84;;;5.12;75.85
36222;BME280;22266;52.340;4.962;2023-03-05T03:39:36;102013.34;;;5.12;76.02
36222;BME280;22266;52.340;4.962;2023-03-05T03:42:02;102011.50;;;5.13;75.89
36222;BME280;22266;52.340;4.962;2023-03-05T03:44:29;102003.50;;;5.13;75.64
36222;BME280;22266;52.340;4.962;2023-03-05T03:46:56;102001.81;;;5.12;75.41
36222;BME280;22266;52.340;4.962;2023-03-05T03:49:24;101999.25;;;5.10;75.85
36222;BME280;22266;52.340;4.962;2023-03-05T03:51:52;101997.72;;;5.08;75.77
36222;BME280;22266;52.340;4.962;2023-03-05T03:54:23;102001.22;;;5.08;75.63
36222;BME280;22266;52.340;4.962;2023-03-05T03:56:56;101994.22;;;5.07;76.06
36222;BME280;22266;52.340;4.962;2023-03-05T03:59:24;101988.13;;;5.05;76.01
36222;BME280;22266;52.340;4.962;2023-03-05T04:01:51;101983.06;;;5.02;75.52
36222;BME280;22266;52.340;4.962;2023-03-05T04:04:18;101985.72;;;5.02;75.61
36222;BME280;22266;52.340;4.962;2023-03-05T04:06:45;101984.88;;;5.02;75.87
36222;BME280;22266;52.340;4.962;2023-03-05T04:09:11;101981.25;;;5.03;76.22
36222;BME280;22266;52.340;4.962;2023-03-05T04:11:38;101982.94;;;5.04;75.94
36222;BME280;22266;52.340;4.962;2023-03-05T04:14:05;101985.63;;;5.04;75.93
36222;BME280;22266;52.340;4.962;2023-03-05T04:16:32;101973.25;;;5.03;76.04
36222;BME280;22266;52.340;4.962;2023-03-05T04:18:58;101976.75;;;5.03;75.79
36222;BME280;22266;52.340;4.962;2023-03-05T04:21:25;101971.44;;;5.03;76.02
36222;BME280;22266;52.340;4.962;2023-03-05T04:23:51;101975.94;;;5.03;75.89
36222;BME280;22266;52.340;4.962;2023-03-05T04:26:18;101971.53;;;5.02;76.17
36222;BME280;22266;52.340;4.962;2023-03-05T04:28:45;101961.00;;;5.00;76.36
36222;BME280;22266;52.340;4.962;2023-03-05T04:31:12;101962.00;;;4.99;76.35
36222;BME280;22266;52.340;4.962;2023-03-05T04:33:38;101955.94;;;4.97;76.47
36222;BME280;22266;52.340;4.962;2023-03-05T04:36:05;101955.09;;;4.96;76.10
36222;BME280;22266;52.340;4.962;2023-03-05T04:38:32;101949.16;;;4.93;76.43
36222;BME280;22266;52.340;4.962;2023-03-05T04:40:58;101947.34;;;4.93;76.32
36222;BME280;22266;52.340;4.962;2023-03-05T04:43:25;101950.16;;;4.92;76.23
36222;BME280;22266;52.340;4.962;2023-03-05T04:45:51;101949.16;;;4.93;76.64
36222;BME280;22266;52.340;4.962;2023-03-05T04:48:18;101951.81;;;4.93;76.38
36222;BME280;22266;52.340;4.962;2023-03-05T04:50:44;101960.81;;;4.92;76.19
36222;BME280;22266;52.340;4.962;2023-03-05T04:53:11;101953.78;;;4.91;76.18
36222;BME280;22266;52.340;4.962;2023-03-05T04:55:37;101951.22;;;4.89;76.70
36222;BME280;22266;52.340;4.962;2023-03-05T04:58:04;101953.19;;;4.87;76.51
36222;BME280;22266;52.340;4.962;2023-03-05T05:00:31;101942.38;;;4.89;76.54
36222;BME280;22266;52.340;4.962;2023-03-05T05:02:57;101939.63;;;4.90;77.05
36222;BME280;22266;52.340;4.962;2023-03-05T05:05:26;101938.47;;;4.93;76.84
36222;BME280;22266;52.340;4.962;2023-03-05T05:07:54;101931.91;;;4.97;76.92
36222;BME280;22266;52.340;4.962;2023-03-05T05:10:21;101926.56;;;4.97;76.00
36222;BME280;22266;52.340;4.962;2023-03-05T05:12:48;101924.75;;;4.97;76.43
36222;BME280;22266;52.340;4.962;2023-03-05T05:15:15;101920.41;;;4.96;76.35
36222;BME280;22266;52.340;4.962;2023-03-05T05:17:41;101926.72;;;4.95;76.74
36222;BME280;22266;52.340;4.962;2023-03-05T05:20:10;101917.03;;;4.94;76.62
36222;BME280;22266;52.340;4.962;2023-03-05T05:22:37;101916.16;;;4.94;76.77
36222;BME280;22266;52.340;4.962;2023-03-05T05:25:04;101921.50;;;4.94;76.57
36222;BME280;22266;52.340;4.962;2023-03-05T05:27:31;101919.69;;;4.94;76.80
36222;BME280;22266;52.340;4.962;2023-03-05T05:29:57;101921.50;;;4.94;76.74
36222;BME280;22266;52.340;4.962;2023-03-05T05:32:24;101919.94;;;4.91;76.44
36222;BME280;22266;52.340;4.962;2023-03-05T05:34:56;101919.09;;;4.91;76.34
36222;BME280;22266;52.340;4.962;2023-03-05T05:37:24;101914.88;;;4.88;76.72
36222;BME280;22266;52.340;4.962;2023-03-05T05:39:51;101907.13;;;4.85;76.44
36222;BME280;22266;52.340;4.962;2023-03-05T05:42:19;101906.28;;;4.85;76.90
36222;BME280;22266;52.340;4.962;2023-03-05T05:44:46;101889.69;;;4.81;76.83
36222;BME280;22266;52.340;4.962;2023-03-05T05:47:16;101891.50;;;4.81;76.46
36222;BME280;22266;52.340;4.962;2023-03-05T05:49:43;101890.81;;;4.79;76.75
36222;BME280;22266;52.340;4.962;2023-03-05T05:52:09;101890.81;;;4.79;77.01
36222;BME280;22266;52.340;4.962;2023-03-05T05:54:36;101894.56;;;4.76;76.81
36222;BME280;22266;52.340;4.962;2023-03-05T05:57:03;101892.06;;;4.75;76.53
36222;BME280;22266;52.340;4.962;2023-03-05T05:59:30;101891.22;;;4.74;76.75
36222;BME280;22266;52.340;4.962;2023-03-05T06:01:56;101883.47;;;4.71;76.92
36222;BME280;22266;52.340;4.962;2023-03-05T06:04:23;101888.91;;;4.69;76.87
36222;BME280;22266;52.340;4.962;2023-03-05T06:06:49;101880.06;;;4.69;76.84
36222;BME280;22266;52.340;4.962;2023-03-05T06:09:16;101879.38;;;4.67;77.20
36222;BME280;22266;52.340;4.962;2023-03-05T06:11:42;101881.19;;;4.66;77.03
36222;BME280;22266;52.340;4.962;2023-03-05T06:14:10;101875.97;;;4.65;77.02
36222;BME280;22266;52.340;4.962;2023-03-05T06:16:38;101876.94;;;4.64;77.26
36222;BME280;22266;52.340;4.962;2023-03-05T06:19:04;101876.94;;;4.64;76.88
36222;BME280;22266;52.340;4.962;2023-03-05T06:21:32;101876.94;;;4.64;77.25
36222;BME280;22266;52.340;4.962;2023-03-05T06:23:59;101879.47;;;4.65;77.20
36222;BME280;22266;52.340;4.962;2023-03-05T06:26:26;101891.00;;;4.66;76.90
36222;BME280;22266;52.340;4.962;2023-03-05T06:28:52;101896.34;;;4.66;76.83
36222;BME280;22266;52.340;4.962;2023-03-05T06:31:24;101886.44;;;4.57;77.15
36222;BME280;22266;52.340;4.962;2023-03-05T06:33:55;101888.50;;;4.53;77.43
36222;BME280;22266;52.340;4.962;2023-03-05T06:36:24;101887.91;;;4.50;77.71
36222;BME280;22266;52.340;4.962;2023-03-05T06:38:51;101893.13;;;4.51;77.37
36222;BME280;22266;52.340;4.962;2023-03-05T06:41:29;101894.81;;;4.52;77.38
36222;BME280;22266;52.340;4.962;2023-03-05T06:43:57;101894.56;;;4.55;77.42
36222;BME280;22266;52.340;4.962;2023-03-05T06:46:26;101890.69;;;4.59;77.86
36222;BME280;22266;52.340;4.962;2023-03-05T06:48:59;101892.81;;;4.65;77.37
36222;BME280;22266;52.340;4.962;2023-03-05T06:51:26;101881.19;;;4.66;77.38
36222;BME280;22266;52.340;4.962;2023-03-05T06:53:55;101876.56;;;4.68;77.14
36222;BME280;22266;52.340;4.962;2023-03-05T06:56:22;101890.63;;;4.70;77.40
36222;BME280;22266;52.340;4.962;2023-03-05T06:58:49;101881.78;;;4.70;77.07
36222;BME280;22266;52.340;4.962;2023-03-05T07:01:18;101879.66;;;4.74;76.97
36222;BME280;22266;52.340;4.962;2023-03-05T07:03:48;101880.53;;;4.74;76.78
36222;BME280;22266;52.340;4.962;2023-03-05T07:06:16;101881.25;;;4.76;76.79
36222;BME280;22266;52.340;4.962;2023-03-05T07:08:43;101883.66;;;4.79;76.78
36222;BME280;22266;52.340;4.962;2023-03-05T07:11:15;101882.53;;;4.82;76.60
36222;BME280;22266;52.340;4.962;2023-03-05T07:13:45;101880.59;;;4.84;76.82
36222;BME280;22266;52.340;4.962;2023-03-05T07:16:18;101877.91;;;4.84;76.98
36222;BME280;22266;52.340;4.962;2023-03-05T07:18:45;101879.59;;;4.85;76.79
36222;BME280;22266;52.340;4.962;2023-03-05T07:21:15;101881.44;;;4.84;76.62
36222;BME280;22266;52.340;4.962;2023-03-05T07:23:42;101878.63;;;4.86;76.82
36222;BME280;22266;52.340;4.962;2023-03-05T07:26:09;101881.44;;;4.84;77.05
36222;BME280;22266;52.340;4.962;2023-03-05T07:28:36;101873.69;;;4.81;76.85
36222;BME280;22266;52.340;4.962;2023-03-05T07:31:05;101874.63;;;4.70;76.66
36222;BME280;22266;52.340;4.962;2023-03-05T07:33:32;101872.06;;;4.69;76.88
36222;BME280;22266;52.340;4.962;2023-03-05T07:36:00;101869.13;;;4.72;77.26
36222;BME280;22266;52.340;4.962;2023-03-05T07:38:27;101876.34;;;4.81;77.00
36222;BME280;22266;52.340;4.962;2023-03-05T07:40:53;101874.25;;;4.85;77.04
36222;BME280;22266;52.340;4.962;2023-03-05T07:43:19;101870.34;;;4.89;77.20
36222;BME280;22266;52.340;4.962;2023-03-05T07:45:46;101870.25;;;4.90;76.65
36222;BME280;22266;52.340;4.962;2023-03-05T07:48:16;101867.88;;;4.97;77.05
36222;BME280;22266;52.340;4.962;2023-03-05T07:50:43;101871.28;;;4.99;76.64
36222;BME280;22266;52.340;4.962;2023-03-05T07:53:09;101868.19;;;5.04;76.26
36222;BME280;22266;52.340;4.962;2023-03-05T07:55:45;101866.22;;;5.06;76.62
36222;BME280;22266;52.340;4.962;2023-03-05T07:58:13;101863.56;;;5.06;76.54
36222;BME280;22266;52.340;4.962;2023-03-05T08:00:39;101858.94;;;5.08;76.58
36222;BME280;22266;52.340;4.962;2023-03-05T08:03:06;101865.97;;;5.09;76.31
36222;BME280;22266;52.340;4.962;2023-03-05T08:05:32;101860.50;;;5.10;76.40
36222;BME280;22266;52.340;4.962;2023-03-05T08:07:59;101860.50;;;5.10;76.62
36222;BME280;22266;52.340;4.962;2023-03-05T08:10:25;101851.63;;;5.10;76.55
36222;BME280;22266;52.340;4.962;2023-03-05T08:12:52;101851.38;;;5.13;76.33
36222;BME280;22266;52.340;4.962;2023-03-05T08:15:19;101851.13;;;5.16;76.20
36222;BME280;22266;52.340;4.962;2023-03-05T08:17:45;101852.66;;;5.18;76.23
36222;BME280;22266;52.340;4.962;2023-03-05T08:20:12;101850.44;;;5.24;76.42
36222;BME280;22266;52.340;4.962;2023-03-05T08:22:38;101850.44;;;5.24;76.10
36222;BME280;22266;52.340;4.962;2023-03-05T08:25:06;101844.69;;;5.28;76.05
36222;BME280;22266;52.340;4.962;2023-03-05T08:27:33;101847.09;;;5.31;76.08
36222;BME280;22266;52.340;4.962;2023-03-05T08:30:03;101838.81;;;5.34;76.12
36222;BME280;22266;52.340;4.962;2023-03-05T08:32:29;101846.56;;;5.37;76.30
36222;BME280;22266;52.340;4.962;2023-03-05T08:34:56;101845.84;;;5.35;76.46
36222;BME280;22266;52.340;4.962;2023-03-05T08:37:26;101843.19;;;5.35;76.20
36222;BME280;22266;52.340;4.962;2023-03-05T08:39:53;101843.03;;;5.37;75.87
36222;BME280;22266;52.340;4.962;2023-03-05T08:42:22;101837.03;;;5.44;76.32
36222;BME280;22266;52.340;4.962;2023-03-05T08:44:48;101830.16;;;5.52;75.96
36222;BME280;22266;52.340;4.962;2023-03-05T08:47:15;101830.75;;;5.55;75.93
36222;BME280;22266;52.340;4.962;2023-03-05T08:49:43;101829.63;;;5.67;76.20
36222;BME280;22266;52.340;4.962;2023-03-05T08:52:10;101819.22;;;5.74;75.73
36222;BME280;22266;52.340;4.962;2023-03-05T08:54:36;101822.63;;;5.76;75.02
36222;BME280;22266;52.340;4.962;2023-03-05T08:57:03;101819.94;;;5.76;74.84
36222;BME280;22266;52.340;4.962;2023-03-05T08:59:30;101816.28;;;5.77;75.09
36222;BME280;22266;52.340;4.962;2023-03-05T09:02:00;101816.13;;;5.79;74.45
36222;BME280;22266;52.340;4.962;2023-03-05T09:04:27;101812.63;;;5.78;74.76
36222;BME280;22266;52.340;4.962;2023-03-05T09:06:56;101808.53;;;5.74;74.75
36222;BME280;22266;52.340;4.962;2023-03-05T09:09:23;101815.56;;;5.75;74.52
36222;BME280;22266;52.340;4.962;2023-03-05T09:11:50;101808.25;;;5.77;75.27
36222;BME280;22266;52.340;4.962;2023-03-05T09:14:17;101814.88;;;5.83;74.76
36222;BME280;22266;52.340;4.962;2023-03-05T09:16:43;101812.50;;;5.89;74.47
36222;BME280;22266;52.340;4.962;2023-03-05T09:19:10;101809.44;;;5.94;75.22
36222;BME280;22266;52.340;4.962;2023-03-05T09:21:38;101811.69;;;5.99;74.71
36222;BME280;22266;52.340;4.962;2023-03-05T09:24:04;101807.75;;;6.03;74.46
36222;BME280;22266;52.340;4.962;2023-03-05T09:26:31;101804.78;;;6.06;74.71
36222;BME280;22266;52.340;4.962;2023-03-05T09:28:57;101804.53;;;6.09;74.14
36222;BME280;22266;52.340;4.962;2023-03-05T09:31:24;101806.91;;;6.12;73.55
36222;BME280;22266;52.340;4.962;2023-03-05T09:33:50;101805.06;;;6.22;73.90
36222;BME280;22266;52.340;4.962;2023-03-05T09:36:23;101806.44;;;6.36;73.25
36222;BME280;22266;52.340;4.962;2023-03-05T09:38:50;101798.56;;;6.34;72.59
36222;BME280;22266;52.340;4.962;2023-03-05T09:41:25;101805.47;;;6.37;71.93
36222;BME280;22266;52.340;4.962;2023-03-05T09:44:27;101802.78;;;6.47;71.78
36222;BME280;22266;52.340;4.962;2023-03-05T09:53:11;101792.34;;;6.53;71.13
36222;BME280;22266;52.340;4.962;2023-03-05T09:55:56;101784.88;;;6.57;69.72
36222;BME280;22266;52.340;4.962;2023-03-05T09:58:34;101789.91;;;6.60;70.44
36222;BME280;22266;52.340;4.962;2023-03-05T10:01:20;101783.16;;;6.65;70.49
36222;BME280;22266;52.340;4.962;2023-03-05T10:03:53;101786.13;;;6.62;69.38
36222;BME280;22266;52.340;4.962;2023-03-05T10:09:12;101785.31;;;6.42;68.61
36222;BME280;22266;52.340;4.962;2023-03-05T10:11:54;101774.63;;;6.42;68.09
36222;BME280;22266;52.340;4.962;2023-03-05T10:14:28;101771.97;;;6.42;67.68
36222;BME280;22266;52.340;4.962;2023-03-05T10:22:30;101768.88;;;6.28;67.76
36222;BME280;22266;52.340;4.962;2023-03-05T10:25:51;101765.81;;;6.23;67.00
36222;BME280;22266;52.340;4.962;2023-03-05T10:28:21;101763.13;;;6.23;67.13
36222;BME280;22266;52.340;4.962;2023-03-05T10:34:11;101755.25;;;6.21;66.33
36222;BME280;22266;52.340;4.962;2023-03-05T10:45:19;101742.69;;;6.41;66.10
36222;BME280;22266;52.340;4.962;2023-03-05T10:50:36;101732.78;;;6.51;66.78
36222;BME280;22266;52.340;4.962;2023-03-05T10:55:53;101737.56;;;6.57;67.48
36222;BME280;22266;52.340;4.962;2023-03-05T10:58:23;101716.31;;;6.56;67.82
36222;BME280;22266;52.340;4.962;2023-03-05T11:03:53;101698.97;;;6.60;67.63
36222;BME280;22266;52.340;4.962;2023-03-05T11:06:30;101701.75;;;6.68;67.65
36222;BME280;22266;52.340;4.962;2023-03-05T11:09:29;101702.34;;;6.62;67.06
36222;BME280;22266;52.340;4.962;2023-03-05T11:12:15;101698.44;;;6.56;66.27
36222;BME280;22266;52.340;4.962;2023-03-05T11:14:45;101701.69;;;6.50;66.94
36222;BME280;22266;52.340;4.962;2023-03-05T11:18:06;101698.97;;;6.60;68.14
36222;BME280;22266;52.340;4.962;2023-03-05T11:33:56;101669.44;;;7.07;66.23
36222;BME280;22266;52.340;4.962;2023-03-05T11:36:30;101666.22;;;7.03;65.27
36222;BME280;22266;52.340;4.962;2023-03-05T11:41:41;101658.47;;;7.00;65.12
36222;BME280;22266;52.340;4.962;2023-03-05T11:44:25;101662.00;;;7.01;65.57
36222;BME280;22266;52.340;4.962;2023-03-05T11:47:00;101654.66;;;7.03;65.47
36222;BME280;22266;52.340;4.962;2023-03-05T11:49:28;101655.81;;;7.00;64.93
36222;BME280;22266;52.340;4.962;2023-03-05T11:52:05;101654.28;;;6.98;65.25
36222;BME280;22266;52.340;4.962;2023-03-05T11:54:46;101637.97;;;6.91;65.04
36222;BME280;22266;52.340;4.962;2023-03-05T11:57:15;101634.16;;;6.93;64.83
36222;BME280;22266;52.340;4.962;2023-03-05T11:59:44;101634.75;;;6.87;64.12
36222;BME280;22266;52.340;4.962;2023-03-05T12:02:18;101627.88;;;6.85;63.72
36222;BME280;22266;52.340;4.962;2023-03-05T12:04:47;101620.28;;;6.80;64.48
36222;BME280;22266;52.340;4.962;2023-03-05T12:07:18;101623.41;;;6.76;63.69
36222;BME280;22266;52.340;4.962;2023-03-05T12:09:50;101618.38;;;6.73;64.04
36222;BME280;22266;52.340;4.962;2023-03-05T12:12:46;101609.91;;;6.77;63.89
36222;BME280;22266;52.340;4.962;2023-03-05T12:23:00;101594.09;;;7.19;63.34
36222;BME280;22266;52.340;4.962;2023-03-05T12:25:49;101595.22;;;7.17;63.49
36222;BME280;22266;52.340;4.962;2023-03-05T12:31:33;101584.22;;;7.20;64.19
36222;BME280;22266;52.340;4.962;2023-03-05T12:37:10;101575.88;;;7.23;62.95
36222;BME280;22266;52.340;4.962;2023-03-05T12:55:36;101550.19;;;7.12;62.86
36222;BME280;22266;52.340;4.962;2023-03-05T12:58:12;101539.72;;;7.01;63.51
36222;BME280;22266;52.340;4.962;2023-03-05T13:00:44;101541.53;;;7.01;64.28
36222;BME280;22266;52.340;4.962;2023-03-05T13:03:18;101533.38;;;7.02;63.89
36222;BME280;22266;52.340;4.962;2023-03-05T13:05:49;101526.25;;;7.11;63.75
36222;BME280;22266;52.340;4.962;2023-03-05T13:11:01;101513.16;;;7.26;63.76
36222;BME280;22266;52.340;4.962;2023-03-05T13:13:31;101505.31;;;7.32;62.90
36222;BME280;22266;52.340;4.962;2023-03-05T13:16:00;101517.41;;;7.36;62.51
36222;BME280;22266;52.340;4.962;2023-03-05T13:18:28;101501.31;;;7.36;62.08
36222;BME280;22266;52.340;4.962;2023-03-05T13:21:15;101502.69;;;7.40;62.96
36222;BME280;22266;52.340;4.962;2023-03-05T13:24:01;101495.03;;;7.46;63.10
36222;BME280;22266;52.340;4.962;2023-03-05T13:26:35;101487.25;;;7.34;60.16
36222;BME280;22266;52.340;4.962;2023-03-05T13:31:35;101479.66;;;7.22;59.89
36222;BME280;22266;52.340;4.962;2023-03-05T13:34:30;101475.13;;;7.22;59.87
36222;BME280;22266;52.340;4.962;2023-03-05T13:37:17;101478.94;;;7.37;59.65
36222;BME280;22266;52.340;4.962;2023-03-05T13:42:28;101468.22;;;7.72;58.85
36222;BME280;22266;52.340;4.962;2023-03-05T13:47:27;101461.88;;;7.81;58.22
36222;BME280;22266;52.340;4.962;2023-03-05T13:50:21;101465.56;;;7.80;57.39
36222;BME280;22266;52.340;4.962;2023-03-05T13:52:47;101461.22;;;7.79;58.60
36222;BME280;22266;52.340;4.962;2023-03-05T13:55:15;101468.44;;;7.78;58.11
36222;BME280;22266;52.340;4.962;2023-03-05T13:57:48;101456.34;;;7.74;58.45
36222;BME280;22266;52.340;4.962;2023-03-05T14:00:35;101465.75;;;7.78;57.88
36222;BME280;22266;52.340;4.962;2023-03-05T14:03:15;101456.69;;;7.79;58.42
36222;BME280;22266;52.340;4.962;2023-03-05T14:05:46;101445.97;;;7.79;58.04
36222;BME280;22266;52.340;4.962;2023-03-05T14:08:21;101447.81;;;7.79;58.69
36222;BME280;22266;52.340;4.962;2023-03-05T14:10:49;101442.59;;;7.77;58.59
36222;BME280;22266;52.340;4.962;2023-03-05T14:13:19;101445.09;;;7.71;57.75
36222;BME280;22266;52.340;4.962;2023-03-05T14:18:29;101438.44;;;7.75;57.68
36222;BME280;22266;52.340;4.962;2023-03-05T14:21:08;101435.41;;;7.78;57.36
36222;BME280;22266;52.340;4.962;2023-03-05T14:23:41;101438.25;;;7.76;57.74
36222;BME280;22266;52.340;4.962;2023-03-05T14:26:34;101435.88;;;7.73;57.73
36222;BME280;22266;52.340;4.962;2023-03-05T14:31:45;101421.94;;;7.61;56.18
36222;BME280;22266;52.340;4.962;2023-03-05T14:34:24;101411.94;;;7.72;56.13
36222;BME280;22266;52.340;4.962;2023-03-05T14:36:54;101402.06;;;7.72;56.35
36222;BME280;22266;52.340;4.962;2023-03-05T14:39:27;101404.41;;;7.75;55.56
36222;BME280;22266;52.340;4.962;2023-03-05T14:41:53;101407.94;;;7.76;55.78
36222;BME280;22266;52.340;4.962;2023-03-05T14:44:20;101396.38;;;7.75;55.40
36222;BME280;22266;52.340;4.962;2023-03-05T14:46:50;101397.03;;;7.69;55.23
36222;BME280;22266;52.340;4.962;2023-03-05T14:49:16;101391.81;;;7.59;55.58
36222;BME280;22266;52.340;4.962;2023-03-05T14:51:44;101383.75;;;7.59;56.13
36222;BME280;22266;52.340;4.962;2023-03-05T14:54:22;101379.75;;;7.63;56.84
36222;BME280;22266;52.340;4.962;2023-03-05T14:56:49;101381.28;;;7.66;56.70